sensor_id;sensor_type;location;lat;lon;timestamp;P1;durP1;ratioP1;P2;durP2;ratioP2
52043;SDS011;38053;53.100;6.078;2023-05-10T00:01:05;14.13;;;12.25;;
52043;SDS011;38053;53.100;6.078;2023-05-10T00:03:30;14.65;;;12.80;;
52043;SDS011;38053;53.100;6.078;2023-05-10T00:05:56;14.93;;;13.00;;
52043;SDS011;38053;53.100;6.078;2023-05-10T00:08:22;18.10;;;14.63;;
52043;SDS011;38053;53.100;6.078;2023-05-10T00:10:48;19.52;;;14.52;;
52043;SDS011;38053;53.100;6.078;2023-05-10T00:13:14;18.55;;;14.95;;
52043;SDS011;38053;53.100;6.078;2023-05-10T00:15:40;16.40;;;13.23;;
52043;SDS011;38053;53.100;6.078;2023-05-10T00:18:05;18.63;;;15.10;;
52043;SDS011;38053;53.100;6.078;2023-05-10T00:20:31;16.65;;;12.80;;
52043;SDS011;38053;53.100;6.078;2023-05-10T00:22:57;17.00;;;12.18;;
52043;SDS011;38053;53.100;6.078;2023-05-10T00:25:23;20.23;;;12.60;;
52043;SDS011;38053;53.100;6.078;2023-05-10T00:27:48;15.23;;;11.00;;
52043;SDS011;38053;53.100;6.078;2023-05-10T00:30:14;14.48;;;11.50;;
52043;SDS011;38053;53.100;6.078;2023-05-10T00:32:40;12.43;;;9.63;;
52043;SDS011;38053;53.100;6.078;2023-05-10T00:35:06;13.65;;;9.95;;
52043;SDS011;38053;53.100;6.078;2023-05-10T00:37:33;11.98;;;9.73;;
52043;SDS011;38053;53.100;6.078;2023-05-10T00:39:59;11.93;;;8.98;;
52043;SDS011;38053;53.100;6.078;2023-05-10T00:42:25;11.75;;;9.75;;
52043;SDS011;38053;53.100;6.078;2023-05-10T00:44:51;12.05;;;8.43;;
52043;SDS011;38053;53.100;6.078;2023-05-10T00:47:16;10.65;;;8.57;;
52043;SDS011;38053;53.100;6.078;2023-05-10T00:49:42;11.98;;;9.60;;
52043;SDS011;38053;53.100;6.078;2023-05-10T00:52:09;12.30;;;9.45;;
52043;SDS011;38053;53.100;6.078;2023-05-10T00:54:35;12.68;;;9.70;;
52043;SDS011;38053;53.100;6.078;2023-05-10T00:57:01;10.52;;;9.18;;
52043;SDS011;38053;53.100;6.078;2023-05-10T00:59:27;12.40;;;10.20;;
52043;SDS011;38053;53.100;6.078;2023-05-10T01:01:53;14.77;;;10.45;;
52043;SDS011;38053;53.100;6.078;2023-05-10T01:04:19;12.73;;;10.75;;
52043;SDS011;38053;53.100;6.078;2023-05-10T01:06:50;15.30;;;11.63;;
52043;SDS011;38053;53.100;6.078;2023-05-10T01:09:16;15.45;;;12.05;;
52043;SDS011;38053;53.100;6.078;2023-05-10T01:11:43;17.48;;;11.10;;
52043;SDS011;38053;53.100;6.078;2023-05-10T01:14:09;17.50;;;12.65;;
52043;SDS011;38053;53.100;6.078;2023-05-10T01:16:38;21.40;;;14.38;;
52043;SDS011;38053;53.100;6.078;2023-05-10T01:19:08;20.40;;;12.80;;
52043;SDS011;38053;53.100;6.078;2023-05-10T01:24:27;21.75;;;13.52;;
52043;SDS011;38053;53.100;6.078;2023-05-10T01:32:36;26.48;;;13.40;;
52043;SDS011;38053;53.100;6.078;2023-05-10T01:35:10;32.40;;;16.55;;
52043;SDS011;38053;53.100;6.078;2023-05-10T01:38:05;26.85;;;16.48;;
52043;SDS011;38053;53.100;6.078;2023-05-10T01:40:59;31.13;;;19.08;;
52043;SDS011;38053;53.100;6.078;2023-05-10T01:46:27;37.47;;;21.48;;
52043;SDS011;38053;53.100;6.078;2023-05-10T01:49:00;37.72;;;20.80;;
52043;SDS011;38053;53.100;6.078;2023-05-10T01:51:31;49.65;;;23.50;;
52043;SDS011;38053;53.100;6.078;2023-05-10T01:54:05;50.80;;;25.23;;
52043;SDS011;38053;53.100;6.078;2023-05-10T01:56:32;43.17;;;22.65;;
52043;SDS011;38053;53.100;6.078;2023-05-10T01:59:00;45.72;;;24.05;;
52043;SDS011;38053;53.100;6.078;2023-05-10T02:01:30;46.03;;;24.17;;
52043;SDS011;38053;53.100;6.078;2023-05-10T02:03:56;41.50;;;24.98;;
52043;SDS011;38053;53.100;6.078;2023-05-10T02:06:24;40.58;;;24.23;;
52043;SDS011;38053;53.100;6.078;2023-05-10T02:08:51;45.47;;;24.55;;
52043;SDS011;38053;53.100;6.078;2023-05-10T02:11:18;46.15;;;24.55;;
52043;SDS011;38053;53.100;6.078;2023-05-10T02:13:47;48.38;;;25.55;;
52043;SDS011;38053;53.100;6.078;2023-05-10T02:16:15;49.80;;;24.98;;
52043;SDS011;38053;53.100;6.078;2023-05-10T02:18:42;45.97;;;24.45;;
52043;SDS011;38053;53.100;6.078;2023-05-10T02:21:09;47.15;;;22.83;;
52043;SDS011;38053;53.100;6.078;2023-05-10T02:23:35;40.95;;;23.17;;
52043;SDS011;38053;53.100;6.078;2023-05-10T02:26:02;45.38;;;25.00;;
52043;SDS011;38053;53.100;6.078;2023-05-10T02:28:30;46.78;;;23.52;;
52043;SDS011;38053;53.100;6.078;2023-05-10T02:30:57;39.53;;;24.35;;
52043;SDS011;38053;53.100;6.078;2023-05-10T02:33:24;43.15;;;22.70;;
52043;SDS011;38053;53.100;6.078;2023-05-10T02:35:51;41.10;;;22.85;;
52043;SDS011;38053;53.100;6.078;2023-05-10T02:38:18;38.30;;;22.83;;
52043;SDS011;38053;53.100;6.078;2023-05-10T02:40:46;40.35;;;22.17;;
52043;SDS011;38053;53.100;6.078;2023-05-10T02:43:14;36.80;;;23.60;;
52043;SDS011;38053;53.100;6.078;2023-05-10T02:45:41;35.85;;;21.40;;
52043;SDS011;38053;53.100;6.078;2023-05-10T02:48:08;37.53;;;23.90;;
52043;SDS011;38053;53.100;6.078;2023-05-10T02:50:34;42.72;;;23.73;;
52043;SDS011;38053;53.100;6.078;2023-05-10T02:53:11;40.35;;;22.15;;
52043;SDS011;38053;53.100;6.078;2023-05-10T02:55:47;34.95;;;19.45;;
52043;SDS011;38053;53.100;6.078;2023-05-10T03:00:44;34.17;;;18.52;;
52043;SDS011;38053;53.100;6.078;2023-05-10T03:03:11;34.95;;;19.05;;
52043;SDS011;38053;53.100;6.078;2023-05-10T03:05:37;28.95;;;19.50;;
52043;SDS011;38053;53.100;6.078;2023-05-10T03:08:02;31.17;;;19.60;;
52043;SDS011;38053;53.100;6.078;2023-05-10T03:10:29;33.83;;;19.48;;
52043;SDS011;38053;53.100;6.078;2023-05-10T03:13:16;29.42;;;18.65;;
52043;SDS011;38053;53.100;6.078;2023-05-10T03:16:05;29.23;;;18.08;;
52043;SDS011;38053;53.100;6.078;2023-05-10T03:18:37;27.05;;;17.77;;
52043;SDS011;38053;53.100;6.078;2023-05-10T03:21:10;24.20;;;15.77;;
52043;SDS011;38053;53.100;6.078;2023-05-10T03:23:43;24.58;;;16.27;;
52043;SDS011;38053;53.100;6.078;2023-05-10T03:26:17;26.00;;;15.98;;
52043;SDS011;38053;53.100;6.078;2023-05-10T03:28:50;26.05;;;16.10;;
52043;SDS011;38053;53.100;6.078;2023-05-10T03:31:17;24.33;;;16.00;;
52043;SDS011;38053;53.100;6.078;2023-05-10T03:33:47;20.83;;;15.75;;
52043;SDS011;38053;53.100;6.078;2023-05-10T03:36:13;23.37;;;15.43;;
52043;SDS011;38053;53.100;6.078;2023-05-10T03:38:39;29.55;;;16.00;;
52043;SDS011;38053;53.100;6.078;2023-05-10T03:41:05;20.00;;;15.23;;
52043;SDS011;38053;53.100;6.078;2023-05-10T03:43:31;19.88;;;15.98;;
52043;SDS011;38053;53.100;6.078;2023-05-10T03:45:56;19.67;;;16.20;;
52043;SDS011;38053;53.100;6.078;2023-05-10T03:48:22;21.52;;;15.60;;
52043;SDS011;38053;53.100;6.078;2023-05-10T03:50:48;16.38;;;12.40;;
52043;SDS011;38053;53.100;6.078;2023-05-10T03:53:14;18.90;;;13.70;;
52043;SDS011;38053;53.100;6.078;2023-05-10T03:55:40;21.08;;;15.55;;
52043;SDS011;38053;53.100;6.078;2023-05-10T03:58:06;23.80;;;15.57;;
52043;SDS011;38053;53.100;6.078;2023-05-10T04:00:32;19.63;;;14.68;;
52043;SDS011;38053;53.100;6.078;2023-05-10T04:02:57;16.80;;;13.85;;
52043;SDS011;38053;53.100;6.078;2023-05-10T04:05:23;17.88;;;15.52;;
52043;SDS011;38053;53.100;6.078;2023-05-10T04:07:49;16.85;;;14.48;;
52043;SDS011;38053;53.100;6.078;2023-05-10T04:10:16;13.48;;;12.07;;
52043;SDS011;38053;53.100;6.078;2023-05-10T04:12:41;11.35;;;9.75;;
52043;SDS011;38053;53.100;6.078;2023-05-10T04:15:07;13.05;;;10.98;;
52043;SDS011;38053;53.100;6.078;2023-05-10T04:17:33;13.30;;;10.00;;
52043;SDS011;38053;53.100;6.078;2023-05-10T04:19:59;7.63;;;6.18;;
52043;SDS011;38053;53.100;6.078;2023-05-10T04:22:25;8.88;;;6.03;;
52043;SDS011;38053;53.100;6.078;2023-05-10T04:24:50;5.07;;;3.58;;
52043;SDS011;38053;53.100;6.078;2023-05-10T04:27:16;4.70;;;3.03;;
52043;SDS011;38053;53.100;6.078;2023-05-10T04:29:42;5.53;;;1.67;;
52043;SDS011;38053;53.100;6.078;2023-05-10T04:32:07;1.77;;;1.20;;
52043;SDS011;38053;53.100;6.078;2023-05-10T04:34:35;2.00;;;1.00;;
52043;SDS011;38053;53.100;6.078;2023-05-10T04:37:01;1.17;;;0.82;;
52043;SDS011;38053;53.100;6.078;2023-05-10T04:39:26;0.80;;;0.60;;
52043;SDS011;38053;53.100;6.078;2023-05-10T04:41:52;0.60;;;0.60;;
52043;SDS011;38053;53.100;6.078;2023-05-10T04:44:18;0.95;;;0.70;;
52043;SDS011;38053;53.100;6.078;2023-05-10T04:46:43;0.50;;;0.50;;
52043;SDS011;38053;53.100;6.078;2023-05-10T04:49:09;0.60;;;0.60;;
52043;SDS011;38053;53.100;6.078;2023-05-10T04:51:34;0.70;;;0.63;;
52043;SDS011;38053;53.100;6.078;2023-05-10T04:54:00;0.50;;;0.50;;
52043;SDS011;38053;53.100;6.078;2023-05-10T04:56:26;0.80;;;0.70;;
52043;SDS011;38053;53.100;6.078;2023-05-10T04:58:51;0.95;;;0.80;;
52043;SDS011;38053;53.100;6.078;2023-05-10T05:01:17;1.58;;;0.70;;
52043;SDS011;38053;53.100;6.078;2023-05-10T05:03:43;1.67;;;0.80;;
52043;SDS011;38053;53.100;6.078;2023-05-10T05:06:08;1.20;;;0.80;;
52043;SDS011;38053;53.100;6.078;2023-05-10T05:08:34;1.70;;;0.82;;
52043;SDS011;38053;53.100;6.078;2023-05-10T05:11:00;0.80;;;0.77;;
52043;SDS011;38053;53.100;6.078;2023-05-10T05:13:25;2.92;;;0.68;;
52043;SDS011;38053;53.100;6.078;2023-05-10T05:15:51;3.17;;;0.90;;
52043;SDS011;38053;53.100;6.078;2023-05-10T05:18:17;1.08;;;0.80;;
52043;SDS011;38053;53.100;6.078;2023-05-10T05:20:42;1.20;;;0.82;;
52043;SDS011;38053;53.100;6.078;2023-05-10T05:23:08;1.70;;;0.90;;
52043;SDS011;38053;53.100;6.078;2023-05-10T05:25:33;2.92;;;1.15;;
52043;SDS011;38053;53.100;6.078;2023-05-10T05:27:59;1.17;;;0.80;;
52043;SDS011;38053;53.100;6.078;2023-05-10T05:30:25;1.17;;;0.90;;
52043;SDS011;38053;53.100;6.078;2023-05-10T05:32:50;7.00;;;1.13;;
52043;SDS011;38053;53.100;6.078;2023-05-10T05:35:16;2.33;;;1.17;;
52043;SDS011;38053;53.100;6.078;2023-05-10T05:37:42;1.85;;;1.27;;
52043;SDS011;38053;53.100;6.078;2023-05-10T05:40:07;2.42;;;1.30;;
52043;SDS011;38053;53.100;6.078;2023-05-10T05:42:37;1.90;;;1.17;;
52043;SDS011;38053;53.100;6.078;2023-05-10T05:45:03;3.20;;;1.48;;
52043;SDS011;38053;53.100;6.078;2023-05-10T05:47:30;3.15;;;1.98;;
52043;SDS011;38053;53.100;6.078;2023-05-10T05:49:55;3.80;;;1.77;;
52043;SDS011;38053;53.100;6.078;2023-05-10T05:52:21;3.47;;;1.88;;
52043;SDS011;38053;53.100;6.078;2023-05-10T05:54:47;2.28;;;1.40;;
52043;SDS011;38053;53.100;6.078;2023-05-10T05:57:12;3.58;;;1.67;;
52043;SDS011;38053;53.100;6.078;2023-05-10T05:59:38;3.75;;;1.90;;
52043;SDS011;38053;53.100;6.078;2023-05-10T06:02:09;5.28;;;2.20;;
52043;SDS011;38053;53.100;6.078;2023-05-10T06:04:35;4.45;;;2.20;;
52043;SDS011;38053;53.100;6.078;2023-05-10T06:07:01;5.22;;;2.85;;
52043;SDS011;38053;53.100;6.078;2023-05-10T06:09:26;5.93;;;2.30;;
52043;SDS011;38053;53.100;6.078;2023-05-10T06:11:52;5.65;;;2.67;;
52043;SDS011;38053;53.100;6.078;2023-05-10T06:14:19;3.70;;;2.35;;
52043;SDS011;38053;53.100;6.078;2023-05-10T06:16:45;4.65;;;2.35;;
52043;SDS011;38053;53.100;6.078;2023-05-10T06:19:11;3.70;;;2.40;;
52043;SDS011;38053;53.100;6.078;2023-05-10T06:21:37;3.00;;;1.90;;
52043;SDS011;38053;53.100;6.078;2023-05-10T06:24:03;3.88;;;1.90;;
52043;SDS011;38053;53.100;6.078;2023-05-10T06:26:28;2.70;;;1.70;;
52043;SDS011;38053;53.100;6.078;2023-05-10T06:28:54;3.25;;;1.90;;
52043;SDS011;38053;53.100;6.078;2023-05-10T06:31:20;4.28;;;2.05;;
52043;SDS011;38053;53.100;6.078;2023-05-10T06:33:45;3.08;;;1.83;;
52043;SDS011;38053;53.100;6.078;2023-05-10T06:36:11;3.25;;;1.77;;
52043;SDS011;38053;53.100;6.078;2023-05-10T06:38:38;3.20;;;1.90;;
52043;SDS011;38053;53.100;6.078;2023-05-10T06:41:04;4.25;;;2.15;;
52043;SDS011;38053;53.100;6.078;2023-05-10T06:43:30;6.78;;;2.75;;
52043;SDS011;38053;53.100;6.078;2023-05-10T06:45:56;4.53;;;2.50;;
52043;SDS011;38053;53.100;6.078;2023-05-10T06:48:22;4.20;;;2.50;;
52043;SDS011;38053;53.100;6.078;2023-05-10T06:50:48;4.03;;;2.58;;
52043;SDS011;38053;53.100;6.078;2023-05-10T06:53:14;4.22;;;2.25;;
52043;SDS011;38053;53.100;6.078;2023-05-10T06:55:40;4.20;;;2.40;;
52043;SDS011;38053;53.100;6.078;2023-05-10T06:58:06;5.38;;;2.88;;
52043;SDS011;38053;53.100;6.078;2023-05-10T07:00:31;7.07;;;3.10;;
52043;SDS011;38053;53.100;6.078;2023-05-10T07:02:57;6.00;;;4.05;;
52043;SDS011;38053;53.100;6.078;2023-05-10T07:05:23;12.23;;;4.07;;
52043;SDS011;38053;53.100;6.078;2023-05-10T07:07:49;5.65;;;3.60;;
52043;SDS011;38053;53.100;6.078;2023-05-10T07:10:15;6.70;;;3.58;;
52043;SDS011;38053;53.100;6.078;2023-05-10T07:12:41;7.13;;;3.67;;
52043;SDS011;38053;53.100;6.078;2023-05-10T07:15:06;8.88;;;4.97;;
52043;SDS011;38053;53.100;6.078;2023-05-10T07:17:33;7.53;;;4.10;;
52043;SDS011;38053;53.100;6.078;2023-05-10T07:19:59;6.70;;;3.80;;
52043;SDS011;38053;53.100;6.078;2023-05-10T07:22:25;7.28;;;3.95;;
52043;SDS011;38053;53.100;6.078;2023-05-10T07:24:51;6.93;;;4.32;;
52043;SDS011;38053;53.100;6.078;2023-05-10T07:27:16;6.40;;;4.15;;
52043;SDS011;38053;53.100;6.078;2023-05-10T07:29:42;9.10;;;4.10;;
52043;SDS011;38053;53.100;6.078;2023-05-10T07:32:08;8.85;;;4.10;;
52043;SDS011;38053;53.100;6.078;2023-05-10T07:34:33;11.23;;;4.40;;
52043;SDS011;38053;53.100;6.078;2023-05-10T07:36:59;7.55;;;4.72;;
52043;SDS011;38053;53.100;6.078;2023-05-10T07:39:25;7.15;;;4.93;;
52043;SDS011;38053;53.100;6.078;2023-05-10T07:41:51;9.88;;;5.95;;
52043;SDS011;38053;53.100;6.078;2023-05-10T07:44:17;13.15;;;6.25;;
52043;SDS011;38053;53.100;6.078;2023-05-10T07:46:46;8.85;;;5.82;;
52043;SDS011;38053;53.100;6.078;2023-05-10T07:49:12;9.40;;;6.88;;
52043;SDS011;38053;53.100;6.078;2023-05-10T07:51:38;10.30;;;6.75;;
52043;SDS011;38053;53.100;6.078;2023-05-10T07:54:04;10.23;;;6.43;;
52043;SDS011;38053;53.100;6.078;2023-05-10T07:56:30;13.05;;;6.30;;
52043;SDS011;38053;53.100;6.078;2023-05-10T07:58:57;8.75;;;6.90;;
52043;SDS011;38053;53.100;6.078;2023-05-10T08:01:23;11.13;;;6.65;;
52043;SDS011;38053;53.100;6.078;2023-05-10T08:03:49;10.20;;;6.60;;
52043;SDS011;38053;53.100;6.078;2023-05-10T08:06:16;11.38;;;6.57;;
52043;SDS011;38053;53.100;6.078;2023-05-10T08:08:43;12.43;;;6.72;;
52043;SDS011;38053;53.100;6.078;2023-05-10T08:11:14;10.90;;;6.38;;
52043;SDS011;38053;53.100;6.078;2023-05-10T08:13:43;11.50;;;6.43;;
52043;SDS011;38053;53.100;6.078;2023-05-10T08:16:09;10.60;;;5.80;;
52043;SDS011;38053;53.100;6.078;2023-05-10T08:18:35;13.77;;;6.97;;
52043;SDS011;38053;53.100;6.078;2023-05-10T08:21:00;10.23;;;5.93;;
52043;SDS011;38053;53.100;6.078;2023-05-10T08:23:26;10.52;;;7.47;;
52043;SDS011;38053;53.100;6.078;2023-05-10T08:25:51;10.57;;;5.75;;
52043;SDS011;38053;53.100;6.078;2023-05-10T08:28:17;10.27;;;5.82;;
52043;SDS011;38053;53.100;6.078;2023-05-10T08:30:43;10.05;;;5.82;;
52043;SDS011;38053;53.100;6.078;2023-05-10T08:33:08;13.82;;;6.07;;
52043;SDS011;38053;53.100;6.078;2023-05-10T08:35:34;8.75;;;5.53;;
52043;SDS011;38053;53.100;6.078;2023-05-10T08:38:00;11.00;;;5.47;;
52043;SDS011;38053;53.100;6.078;2023-05-10T08:40:26;10.68;;;5.50;;
52043;SDS011;38053;53.100;6.078;2023-05-10T08:43:00;9.70;;;5.68;;
52043;SDS011;38053;53.100;6.078;2023-05-10T08:45:28;11.57;;;5.47;;
52043;SDS011;38053;53.100;6.078;2023-05-10T08:47:59;11.05;;;4.80;;
52043;SDS011;38053;53.100;6.078;2023-05-10T08:50:27;10.52;;;5.50;;
52043;SDS011;38053;53.100;6.078;2023-05-10T08:52:55;12.13;;;5.68;;
52043;SDS011;38053;53.100;6.078;2023-05-10T08:55:25;13.60;;;6.00;;
52043;SDS011;38053;53.100;6.078;2023-05-10T08:57:51;10.40;;;5.18;;
52043;SDS011;38053;53.100;6.078;2023-05-10T09:00:16;10.57;;;4.93;;
52043;SDS011;38053;53.100;6.078;2023-05-10T09:02:43;8.10;;;5.32;;
52043;SDS011;38053;53.100;6.078;2023-05-10T09:05:10;10.63;;;6.55;;
52043;SDS011;38053;53.100;6.078;2023-05-10T09:07:37;10.20;;;5.65;;
52043;SDS011;38053;53.100;6.078;2023-05-10T09:10:02;10.23;;;6.03;;
52043;SDS011;38053;53.100;6.078;2023-05-10T09:12:29;10.75;;;6.03;;
52043;SDS011;38053;53.100;6.078;2023-05-10T09:14:55;10.35;;;6.03;;
52043;SDS011;38053;53.100;6.078;2023-05-10T09:17:23;8.18;;;5.50;;
52043;SDS011;38053;53.100;6.078;2023-05-10T09:19:49;8.90;;;5.72;;
52043;SDS011;38053;53.100;6.078;2023-05-10T09:22:21;8.18;;;5.45;;
52043;SDS011;38053;53.100;6.078;2023-05-10T09:24:47;12.23;;;7.07;;
52043;SDS011;38053;53.100;6.078;2023-05-10T09:27:27;10.53;;;5.93;;
52043;SDS011;38053;53.100;6.078;2023-05-10T09:29:53;8.93;;;6.25;;
52043;SDS011;38053;53.100;6.078;2023-05-10T09:32:20;9.48;;;5.97;;
52043;SDS011;38053;53.100;6.078;2023-05-10T09:34:45;7.25;;;5.25;;
52043;SDS011;38053;53.100;6.078;2023-05-10T09:37:15;9.68;;;5.80;;
52043;SDS011;38053;53.100;6.078;2023-05-10T09:39:40;10.20;;;6.18;;
52043;SDS011;38053;53.100;6.078;2023-05-10T09:42:07;12.50;;;7.20;;
52043;SDS011;38053;53.100;6.078;2023-05-10T09:44:34;10.30;;;6.07;;
52043;SDS011;38053;53.100;6.078;2023-05-10T09:47:00;10.35;;;5.90;;
52043;SDS011;38053;53.100;6.078;2023-05-10T09:49:27;7.18;;;5.10;;
52043;SDS011;38053;53.100;6.078;2023-05-10T09:52:03;10.02;;;5.63;;
52043;SDS011;38053;53.100;6.078;2023-05-10T09:54:31;7.85;;;5.20;;
52043;SDS011;38053;53.100;6.078;2023-05-10T09:56:57;6.80;;;4.90;;
52043;SDS011;38053;53.100;6.078;2023-05-10T09:59:24;13.55;;;6.88;;
52043;SDS011;38053;53.100;6.078;2023-05-10T10:01:52;11.25;;;7.13;;
52043;SDS011;38053;53.100;6.078;2023-05-10T10:04:21;11.88;;;6.38;;
52043;SDS011;38053;53.100;6.078;2023-05-10T10:06:47;12.93;;;7.47;;
52043;SDS011;38053;53.100;6.078;2023-05-10T10:09:29;10.85;;;6.85;;
52043;SDS011;38053;53.100;6.078;2023-05-10T10:11:56;8.95;;;7.03;;
52043;SDS011;38053;53.100;6.078;2023-05-10T10:14:22;14.48;;;7.97;;
52043;SDS011;38053;53.100;6.078;2023-05-10T10:16:49;12.45;;;8.25;;
52043;SDS011;38053;53.100;6.078;2023-05-10T10:19:16;10.95;;;7.85;;
52043;SDS011;38053;53.100;6.078;2023-05-10T10:21:46;11.43;;;7.75;;
52043;SDS011;38053;53.100;6.078;2023-05-10T10:24:12;12.07;;;7.72;;
52043;SDS011;38053;53.100;6.078;2023-05-10T10:26:38;12.57;;;7.60;;
52043;SDS011;38053;53.100;6.078;2023-05-10T10:29:23;11.52;;;7.90;;
52043;SDS011;38053;53.100;6.078;2023-05-10T10:34:31;12.20;;;8.35;;
52043;SDS011;38053;53.100;6.078;2023-05-10T10:36:57;13.60;;;9.50;;
52043;SDS011;38053;53.100;6.078;2023-05-10T10:39:28;12.88;;;9.52;;
52043;SDS011;38053;53.100;6.078;2023-05-10T10:41:56;16.35;;;9.10;;
52043;SDS011;38053;53.100;6.078;2023-05-10T10:55:06;9.63;;;5.95;;
52043;SDS011;38053;53.100;6.078;2023-05-10T11:05:44;11.73;;;6.47;;
52043;SDS011;38053;53.100;6.078;2023-05-10T11:13:45;14.63;;;8.18;;
52043;SDS011;38053;53.100;6.078;2023-05-10T11:16:21;10.40;;;7.25;;
52043;SDS011;38053;53.100;6.078;2023-05-10T11:18:52;11.02;;;7.43;;
52043;SDS011;38053;53.100;6.078;2023-05-10T11:21:19;14.05;;;7.88;;
52043;SDS011;38053;53.100;6.078;2023-05-10T11:23:55;13.52;;;9.38;;
52043;SDS011;38053;53.100;6.078;2023-05-10T11:26:23;10.18;;;7.45;;
52043;SDS011;38053;53.100;6.078;2023-05-10T11:28:51;14.52;;;8.75;;
52043;SDS011;38053;53.100;6.078;2023-05-10T11:31:20;13.57;;;7.97;;
52043;SDS011;38053;53.100;6.078;2023-05-10T11:33:50;9.85;;;6.57;;
52043;SDS011;38053;53.100;6.078;2023-05-10T11:36:18;11.73;;;7.72;;
52043;SDS011;38053;53.100;6.078;2023-05-10T11:38:48;11.75;;;7.88;;
52043;SDS011;38053;53.100;6.078;2023-05-10T11:41:15;11.60;;;7.35;;
52043;SDS011;38053;53.100;6.078;2023-05-10T11:43:45;14.50;;;8.03;;
52043;SDS011;38053;53.100;6.078;2023-05-10T11:46:14;12.67;;;8.13;;
52043;SDS011;38053;53.100;6.078;2023-05-10T11:48:40;12.13;;;7.97;;
52043;SDS011;38053;53.100;6.078;2023-05-10T11:51:07;12.65;;;8.63;;
52043;SDS011;38053;53.100;6.078;2023-05-10T11:53:33;13.60;;;8.20;;
52043;SDS011;38053;53.100;6.078;2023-05-10T11:56:03;12.25;;;8.88;;
52043;SDS011;38053;53.100;6.078;2023-05-10T11:58:32;12.73;;;8.45;;
52043;SDS011;38053;53.100;6.078;2023-05-10T12:00:59;10.90;;;8.00;;
52043;SDS011;38053;53.100;6.078;2023-05-10T12:03:29;12.80;;;8.95;;
52043;SDS011;38053;53.100;6.078;2023-05-10T12:05:55;13.73;;;9.23;;
52043;SDS011;38053;53.100;6.078;2023-05-10T12:08:22;14.40;;;9.02;;
52043;SDS011;38053;53.100;6.078;2023-05-10T12:10:49;12.80;;;8.60;;
52043;SDS011;38053;53.100;6.078;2023-05-10T12:13:15;14.15;;;9.93;;
52043;SDS011;38053;53.100;6.078;2023-05-10T12:15:41;12.20;;;8.35;;
52043;SDS011;38053;53.100;6.078;2023-05-10T12:18:08;11.02;;;8.30;;
52043;SDS011;38053;53.100;6.078;2023-05-10T12:20:35;14.90;;;9.82;;
52043;SDS011;38053;53.100;6.078;2023-05-10T12:23:01;11.05;;;8.23;;
52043;SDS011;38053;53.100;6.078;2023-05-10T12:25:35;10.57;;;7.22;;
52043;SDS011;38053;53.100;6.078;2023-05-10T12:28:06;10.90;;;7.88;;
52043;SDS011;38053;53.100;6.078;2023-05-10T12:30:33;10.73;;;7.85;;
52043;SDS011;38053;53.100;6.078;2023-05-10T12:33:10;11.55;;;9.00;;
52043;SDS011;38053;53.100;6.078;2023-05-10T12:35:50;71.00;;;13.02;;
52043;SDS011;38053;53.100;6.078;2023-05-10T12:41:14;9.77;;;7.55;;
52043;SDS011;38053;53.100;6.078;2023-05-10T12:43:41;11.00;;;6.95;;
52043;SDS011;38053;53.100;6.078;2023-05-10T12:46:07;10.82;;;6.45;;
52043;SDS011;38053;53.100;6.078;2023-05-10T12:48:34;12.95;;;6.50;;
52043;SDS011;38053;53.100;6.078;2023-05-10T12:51:01;10.30;;;6.15;;
52043;SDS011;38053;53.100;6.078;2023-05-10T12:53:27;11.88;;;5.65;;
52043;SDS011;38053;53.100;6.078;2023-05-10T12:55:53;9.90;;;6.53;;
52043;SDS011;38053;53.100;6.078;2023-05-10T12:58:19;13.00;;;5.75;;
52043;SDS011;38053;53.100;6.078;2023-05-10T13:00:45;9.90;;;6.13;;
52043;SDS011;38053;53.100;6.078;2023-05-10T13:03:11;11.02;;;6.10;;
52043;SDS011;38053;53.100;6.078;2023-05-10T13:05:37;7.07;;;5.82;;
52043;SDS011;38053;53.100;6.078;2023-05-10T13:08:03;8.52;;;4.72;;
52043;SDS011;38053;53.100;6.078;2023-05-10T13:10:30;9.95;;;5.65;;
52043;SDS011;38053;53.100;6.078;2023-05-10T13:12:56;7.25;;;4.47;;
52043;SDS011;38053;53.100;6.078;2023-05-10T13:15:26;8.32;;;4.72;;
52043;SDS011;38053;53.100;6.078;2023-05-10T13:17:52;9.43;;;6.05;;
52043;SDS011;38053;53.100;6.078;2023-05-10T13:20:18;9.05;;;6.18;;
52043;SDS011;38053;53.100;6.078;2023-05-10T13:22:43;8.68;;;5.82;;
52043;SDS011;38053;53.100;6.078;2023-05-10T13:25:10;8.00;;;5.05;;
52043;SDS011;38053;53.100;6.078;2023-05-10T13:27:36;8.60;;;4.95;;
52043;SDS011;38053;53.100;6.078;2023-05-10T13:30:02;11.65;;;6.10;;
52043;SDS011;38053;53.100;6.078;2023-05-10T13:32:29;10.15;;;6.25;;
52043;SDS011;38053;53.100;6.078;2023-05-10T13:34:55;10.90;;;7.13;;
52043;SDS011;38053;53.100;6.078;2023-05-10T13:37:21;13.88;;;7.25;;
52043;SDS011;38053;53.100;6.078;2023-05-10T13:39:47;11.32;;;7.50;;
52043;SDS011;38053;53.100;6.078;2023-05-10T13:42:12;11.02;;;7.32;;
52043;SDS011;38053;53.100;6.078;2023-05-10T13:44:38;11.73;;;8.55;;
52043;SDS011;38053;53.100;6.078;2023-05-10T13:47:05;10.70;;;8.18;;
52043;SDS011;38053;53.100;6.078;2023-05-10T13:49:30;14.68;;;8.00;;
52043;SDS011;38053;53.100;6.078;2023-05-10T13:51:56;11.43;;;8.70;;
52043;SDS011;38053;53.100;6.078;2023-05-10T13:54:23;12.68;;;8.93;;
52043;SDS011;38053;53.100;6.078;2023-05-10T13:56:49;12.00;;;8.43;;
52043;SDS011;38053;53.100;6.078;2023-05-10T13:59:15;12.25;;;8.43;;
52043;SDS011;38053;53.100;6.078;2023-05-10T14:01:41;13.15;;;8.77;;
52043;SDS011;38053;53.100;6.078;2023-05-10T14:04:07;15.93;;;8.93;;
52043;SDS011;38053;53.100;6.078;2023-05-10T14:06:35;10.68;;;6.40;;
52043;SDS011;38053;53.100;6.078;2023-05-10T14:09:01;11.77;;;7.22;;
52043;SDS011;38053;53.100;6.078;2023-05-10T14:11:27;11.95;;;7.53;;
52043;SDS011;38053;53.100;6.078;2023-05-10T14:13:53;11.75;;;7.40;;
52043;SDS011;38053;53.100;6.078;2023-05-10T14:16:19;12.27;;;8.25;;
52043;SDS011;38053;53.100;6.078;2023-05-10T14:18:45;9.65;;;7.00;;
52043;SDS011;38053;53.100;6.078;2023-05-10T14:21:11;9.40;;;5.20;;
52043;SDS011;38053;53.100;6.078;2023-05-10T14:23:37;10.10;;;4.57;;
52043;SDS011;38053;53.100;6.078;2023-05-10T14:26:03;8.80;;;3.55;;
52043;SDS011;38053;53.100;6.078;2023-05-10T14:28:29;5.88;;;3.25;;
52043;SDS011;38053;53.100;6.078;2023-05-10T14:30:54;6.13;;;3.33;;
52043;SDS011;38053;53.100;6.078;2023-05-10T14:33:20;6.47;;;3.60;;
52043;SDS011;38053;53.100;6.078;2023-05-10T14:35:46;9.88;;;3.88;;
52043;SDS011;38053;53.100;6.078;2023-05-10T14:38:12;7.50;;;3.83;;
52043;SDS011;38053;53.100;6.078;2023-05-10T14:40:38;9.95;;;6.07;;
52043;SDS011;38053;53.100;6.078;2023-05-10T14:43:04;10.50;;;7.07;;
52043;SDS011;38053;53.100;6.078;2023-05-10T14:45:29;10.38;;;7.35;;
52043;SDS011;38053;53.100;6.078;2023-05-10T14:47:56;10.57;;;8.38;;
52043;SDS011;38053;53.100;6.078;2023-05-10T14:50:22;12.90;;;8.15;;
52043;SDS011;38053;53.100;6.078;2023-05-10T14:52:48;12.60;;;8.45;;
52043;SDS011;38053;53.100;6.078;2023-05-10T14:55:14;12.80;;;8.57;;
52043;SDS011;38053;53.100;6.078;2023-05-10T14:57:40;9.13;;;6.78;;
52043;SDS011;38053;53.100;6.078;2023-05-10T15:00:06;9.80;;;6.25;;
52043;SDS011;38053;53.100;6.078;2023-05-10T15:02:32;8.13;;;6.20;;
52043;SDS011;38053;53.100;6.078;2023-05-10T15:04:57;8.63;;;6.25;;
52043;SDS011;38053;53.100;6.078;2023-05-10T15:07:23;6.97;;;5.35;;
52043;SDS011;38053;53.100;6.078;2023-05-10T15:09:50;8.43;;;5.97;;
52043;SDS011;38053;53.100;6.078;2023-05-10T15:12:17;7.80;;;6.03;;
52043;SDS011;38053;53.100;6.078;2023-05-10T15:14:43;9.35;;;6.18;;
52043;SDS011;38053;53.100;6.078;2023-05-10T15:17:09;9.07;;;6.20;;
52043;SDS011;38053;53.100;6.078;2023-05-10T15:19:35;8.23;;;6.35;;